KBIX/BIX METAR and TAF weather

Enter ICAO airport designator
Station Type Date Time Source
KBIX METAR 2019/12/14 03:56 UTC NOAA

KBIX 140356Z AUTO 00000KT 10SM OVC007 12/11 A2983 RMK AO2 CIG 006 RWY03 SLP104 T01160108 $


Station Type Date Time Source
KBIX Decoded METAR 2019/12/14 03:56 UTC NOAA

Keesler Air Force Base / Biloxi, MS, United States (KBIX) 30-25N 088-55W
Dec 13, 2019 - 10:56 PM EST / 2019.12.14 0356 UTC
Wind: Calm:0
Visibility: 10 mile(s):0
Sky conditions: overcast
Temperature: 52.9 F (11.6 C)
Dew Point: 51.4 F (10.8 C)
Relative Humidity: 94%
Pressure (altimeter): 29.83 in. Hg (1010 hPa)
ob: KBIX 140356Z AUTO 00000KT 10SM OVC007 12/11 A2983 RMK AO2 CIG 006 RWY03 SLP104 T01160108
cycle: 4

Station Type Date Time Source
KBIX TAF 2019/12/14 02:04 UTC NOAA

TAF KBIX 140200Z 1402/1508 VRB06KT 8000 BR BKN006 OVC025 QNH2980INS
BECMG 1413/1414 VRB06KT 9999 NSW OVC020 QNH2984INS
BECMG 1417/1418 VRB06KT 9999 BKN020 QNH2988INS
BECMG 1421/1422 VRB06KT 9999 FEW040 QNH2989INS TX14/1421Z TN09/1406Z LAST NO
AMDS AFT 1405 NEXT 1510

Example: see airport list